Time;durP1;ratioP1;P1;durP2;ratioP2;P2;SDS_P1;SDS_P2;PMS_P1;PMS_P2;Temp;Humidity;BMP_temperature;BMP_pressure;BME280_temperature;BME280_humidity;BME280_pressure;Samples;Min_cycle;Max_cycle;Signal;HPM_P1;HPM_P2
2021/09/11 06:55:48;;;;;;;10.75;9.65;;;17.70;99.90;;;;;;5019970;28;20277;-81
2021/09/11 07:02:03;;;;;;;10.80;9.35;;;17.70;99.90;;;;;;5020690;28;20636;-83
2021/09/11 07:04:31;;;;;;;10.20;9.20;;;17.60;99.90;;;;;;5019286;28;20669;-84
2021/09/11 07:06:58;;;;;;;9.50;8.70;;;17.90;99.90;;;;;;5019576;28;20223;-84
2021/09/11 07:09:25;;;;;;;9.70;8.80;;;17.80;99.90;;;;;;5016605;28;20282;-84
2021/09/11 07:12:06;;;;;;;9.32;8.50;;;17.80;99.90;;;;;;5015608;28;20286;-84
2021/09/11 07:14:33;;;;;;;9.18;8.38;;;17.90;99.90;;;;;;5006311;28;20200;-86
2021/09/11 07:17:03;;;;;;;9.23;8.43;;;18.00;99.90;;;;;;5006095;28;20227;-88
2021/09/11 07:19:30;;;;;;;9.15;8.35;;;18.20;99.90;;;;;;4992495;28;20231;-85
2021/09/11 07:21:57;;;;;;;8.90;8.10;;;18.50;99.90;;;;;;5008617;28;20223;-85
2021/09/11 07:24:24;;;;;;;9.00;8.10;;;18.70;99.70;;;;;;5015280;28;20230;-88
2021/09/11 07:26:52;;;;;;;7.90;7.30;;;18.80;99.50;;;;;;5016690;28;20242;-86
2021/09/11 07:29:21;;;;;;;8.13;7.38;;;19.00;98.90;;;;;;5019119;28;20191;-85
2021/09/11 07:31:48;;;;;;;7.70;7.10;;;19.20;98.80;;;;;;5018410;28;20245;-86
2021/09/11 07:34:16;;;;;;;7.13;6.53;;;19.50;98.00;;;;;;4996777;28;20718;-85
2021/09/11 07:36:43;;;;;;;7.00;6.40;;;19.60;96.50;;;;;;5004984;28;20239;-86
2021/09/11 07:39:15;;;;;;;7.18;6.57;;;19.60;95.60;;;;;;5000220;28;20200;-90
2021/09/11 07:41:42;;;;;;;6.53;6.00;;;19.80;96.50;;;;;;4998638;28;20674;-88
2021/09/11 07:44:09;;;;;;;7.15;6.47;;;19.90;95.90;;;;;;4998886;28;20195;-89
2021/09/11 07:46:38;;;;;;;10.30;6.78;;;20.00;94.60;;;;;;5009885;28;20311;-85
2021/09/11 07:49:04;;;;;;;7.10;6.40;;;20.10;94.80;;;;;;5009508;28;20199;-85
2021/09/11 07:51:32;;;;;;;6.78;6.18;;;20.30;94.80;;;;;;5000470;28;20233;-84
2021/09/11 07:53:59;;;;;;;7.00;6.30;;;20.40;94.60;;;;;;5005086;28;20814;-84
2021/09/11 07:56:26;;;;;;;7.95;6.10;;;20.50;94.20;;;;;;5013260;28;20235;-82
2021/09/11 07:58:53;;;;;;;7.18;6.20;;;20.70;94.00;;;;;;5016250;28;20205;-85
2021/09/11 08:01:21;;;;;;;7.13;6.40;;;20.80;92.80;;;;;;5018917;28;20532;-84
2021/09/11 08:03:49;;;;;;;6.85;6.20;;;20.80;92.00;;;;;;5004819;28;20259;-83
2021/09/11 08:06:16;;;;;;;5.88;5.38;;;21.00;92.70;;;;;;5018143;28;20223;-82
2021/09/11 08:08:52;;;;;;;6.00;5.47;;;21.20;91.30;;;;;;5013604;28;20196;-80
2021/09/11 08:11:19;;;;;;;6.22;5.60;;;21.60;90.20;;;;;;5009624;28;20278;-85
2021/09/11 08:13:46;;;;;;;6.30;5.50;;;21.70;86.40;;;;;;5020803;28;20306;-82
2021/09/11 08:16:13;;;;;;;6.60;5.75;;;21.90;84.50;;;;;;5019859;28;20241;-83
2021/09/11 08:18:48;;;;;;;7.43;5.93;;;21.80;84.60;;;;;;5013549;28;20199;-83
2021/09/11 08:21:15;;;;;;;7.00;6.30;;;21.80;85.50;;;;;;5005302;28;20909;-82
2021/09/11 08:23:43;;;;;;;5.97;5.45;;;22.00;85.40;;;;;;5002313;28;20202;-84
2021/09/11 08:26:10;;;;;;;7.05;6.20;;;22.00;88.30;;;;;;5005740;28;20227;-84
2021/09/11 08:28:37;;;;;;;6.57;5.85;;;22.10;86.20;;;;;;5007306;28;20207;-80
2021/09/11 08:31:04;;;;;;;6.00;5.50;;;22.20;82.40;;;;;;5017907;28;20277;-83
2021/09/11 08:33:32;;;;;;;5.88;5.28;;;22.20;75.50;;;;;;5016494;28;20230;-83
2021/09/11 08:36:01;;;;;;;6.07;5.05;;;22.20;74.30;;;;;;5019362;28;20586;-84
2021/09/11 08:38:27;;;;;;;5.65;5.18;;;22.20;77.20;;;;;;5013655;28;20200;-81
2021/09/11 08:40:54;;;;;;;5.55;5.05;;;22.10;78.50;;;;;;5006922;28;20263;-88
2021/09/11 08:43:21;;;;;;;5.57;5.07;;;22.40;73.60;;;;;;5005286;28;20211;-82
2021/09/11 08:45:48;;;;;;;135.32;122.22;;;22.50;71.30;;;;;;5015687;28;20298;-82
2021/09/11 08:48:20;;;;;;;7.22;6.53;;;22.70;72.30;;;;;;5009517;28;20282;-86
2021/09/11 08:50:47;;;;;;;5.65;5.10;;;23.00;67.60;;;;;;5014722;28;20199;-81
2021/09/11 08:53:17;;;;;;;5.05;4.63;;;23.00;59.10;;;;;;5008060;28;20282;-85
2021/09/11 08:55:44;;;;;;;5.00;4.60;;;24.10;59.70;;;;;;4998315;28;20211;-85
2021/09/11 08:58:11;;;;;;;5.40;4.90;;;25.30;48.00;;;;;;5015780;28;20219;-85
2021/09/11 09:00:40;;;;;;;4.95;4.55;;;25.90;46.00;;;;;;5017130;28;20212;-89
2021/09/11 09:03:33;;;;;;;4.88;4.47;;;26.00;39.40;;;;;;5012203;28;20202;-87
2021/09/11 09:06:21;;;;;;;4.93;4.45;;;26.40;38.90;;;;;;5010723;28;20227;-88
2021/09/11 09:08:51;;;;;;;5.07;4.57;;;26.10;40.10;;;;;;5012934;28;20281;-87
2021/09/11 09:11:26;;;;;;;5.25;4.70;;;25.50;44.00;;;;;;5015697;28;20711;-89
2021/09/11 09:13:59;;;;;;;5.05;4.60;;;25.10;45.10;;;;;;5008028;28;20206;-87
2021/09/11 09:16:28;;;;;;;5.57;5.03;;;24.80;46.50;;;;;;5013731;28;20686;-86
2021/09/11 09:19:15;;;;;;;15.00;9.77;;;24.00;49.80;;;;;;5009746;28;20203;-85
2021/09/11 09:21:43;;;;;;;5.65;5.15;;;23.60;50.80;;;;;;5012863;28;20235;-86
2021/09/11 09:24:14;;;;;;;5.80;5.30;;;23.50;50.80;;;;;;5001344;28;20660;-83
2021/09/11 09:30:08;;;;;;;7.57;5.60;;;23.30;57.30;;;;;;4997097;28;20184;-85
2021/09/11 09:33:01;;;;;;;5.25;4.82;;;23.20;52.90;;;;;;5006091;28;20298;-90
2021/09/11 09:39:00;;;;;;;5.10;4.70;;;22.90;58.50;;;;;;5016077;28;20265;-90
2021/09/11 09:41:42;;;;;;;5.40;4.90;;;23.30;58.90;;;;;;5007684;28;20207;-88
2021/09/11 09:44:11;;;;;;;5.80;5.13;;;23.60;57.50;;;;;;4999166;28;20235;-91
2021/09/11 09:46:39;;;;;;;5.97;5.28;;;23.60;53.90;;;;;;5013765;28;20203;-87
2021/09/11 09:49:07;;;;;;;7.20;5.72;;;23.60;52.00;;;;;;5004900;28;20201;-85
2021/09/11 09:51:36;;;;;;;5.95;5.35;;;23.50;53.80;;;;;;5004532;28;20216;-87
2021/09/11 09:54:03;;;;;;;6.38;5.78;;;23.90;53.50;;;;;;4998642;28;20211;-88
2021/09/11 09:56:32;;;;;;;12.25;10.98;;;23.80;54.60;;;;;;5007382;28;20644;-88
2021/09/11 09:59:00;;;;;;;6.30;5.80;;;23.60;53.30;;;;;;5007377;28;20208;-88
2021/09/11 10:01:28;;;;;;;6.00;5.50;;;23.30;56.20;;;;;;5005617;28;20231;-91
2021/09/11 10:07:47;;;;;;;6.32;5.60;;;23.20;56.00;;;;;;5015889;28;20693;-88
2021/09/11 10:10:37;;;;;;;5.68;5.18;;;23.00;57.10;;;;;;5016170;28;20203;-88
2021/09/11 10:13:53;;;;;;;5.85;5.35;;;23.00;58.80;;;;;;4996200;28;20214;-87
2021/09/11 10:16:31;;;;;;;7.22;6.22;;;23.00;58.70;;;;;;5027505;28;20998;-88
2021/09/11 10:18:58;;;;;;;6.05;5.55;;;22.80;61.00;;;;;;4996969;28;20223;-91
2021/09/11 10:21:37;;;;;;;5.85;5.32;;;23.00;58.70;;;;;;5013993;28;20633;-89
2021/09/11 10:24:27;;;;;;;5.63;5.18;;;23.20;56.80;;;;;;5028902;28;20305;-85
2021/09/11 10:26:55;;;;;;;5.85;5.40;;;23.20;56.90;;;;;;5016353;28;20239;-84
2021/09/11 10:29:51;;;;;;;6.00;5.50;;;23.10;57.10;;;;;;5014694;28;20204;-86
2021/09/11 10:32:59;;;;;;;6.30;5.75;;;23.20;54.90;;;;;;5011655;28;20223;-83
2021/09/11 10:35:27;;;;;;;6.13;5.40;;;23.50;54.60;;;;;;5011224;28;20286;-85
2021/09/11 10:37:58;;;;;;;7.07;5.90;;;23.80;53.10;;;;;;5011715;28;20791;-85
2021/09/11 10:40:36;;;;;;;6.05;5.45;;;24.00;51.30;;;;;;5015917;28;20525;-86
2021/09/11 10:43:20;;;;;;;5.28;4.88;;;23.90;47.50;;;;;;5021410;28;20245;-85
2021/09/11 10:45:56;;;;;;;6.20;5.63;;;23.80;47.80;;;;;;5023624;28;20223;-85
2021/09/11 10:52:03;;;;;;;5.57;5.07;;;23.80;50.90;;;;;;4975961;28;20244;-87
2021/09/11 10:54:33;;;;;;;6.93;5.68;;;24.00;53.10;;;;;;4947742;28;20209;-88
2021/09/11 10:57:06;;;;;;;6.22;5.65;;;24.10;49.00;;;;;;5003011;28;20270;-87
2021/09/11 10:59:44;;;;;;;5.43;4.80;;;23.70;51.20;;;;;;5015873;28;20199;-85
2021/09/11 11:02:22;;;;;;;5.10;4.50;;;23.90;50.50;;;;;;5008389;28;20225;-87
2021/09/11 11:05:30;;;;;;;5.13;4.72;;;24.00;53.30;;;;;;5009356;28;20554;-87
2021/09/11 11:08:02;;;;;;;5.72;5.22;;;24.20;51.10;;;;;;5011954;28;20310;-85
2021/09/11 11:10:29;;;;;;;5.43;4.93;;;24.20;50.40;;;;;;5008352;28;20234;-87
2021/09/11 11:12:56;;;;;;;5.65;5.10;;;24.00;54.20;;;;;;5010273;28;20245;-84
2021/09/11 11:15:27;;;;;;;5.32;4.85;;;24.40;52.20;;;;;;5006700;28;20198;-85
2021/09/11 11:17:54;;;;;;;5.53;5.07;;;24.40;46.90;;;;;;5010683;28;20273;-86
2021/09/11 11:20:23;;;;;;;4.78;4.38;;;24.20;49.60;;;;;;5011678;28;20203;-84
2021/09/11 11:26:13;;;;;;;5.03;4.63;;;24.00;47.50;;;;;;5015321;28;20182;-87
2021/09/11 11:28:41;;;;;;;6.47;5.20;;;24.30;50.80;;;;;;4998036;28;20651;-88
2021/09/11 11:31:08;;;;;;;4.63;4.28;;;24.80;49.70;;;;;;4998719;28;20230;-89
2021/09/11 11:33:46;;;;;;;5.32;4.82;;;24.90;48.30;;;;;;5000291;28;20233;-87
2021/09/11 11:36:14;;;;;;;4.93;4.47;;;25.20;44.00;;;;;;5011172;28;20223;-90
2021/09/11 11:42:07;;;;;;;5.05;4.55;;;25.00;43.60;;;;;;5014395;28;20638;-84
2021/09/11 11:44:37;;;;;;;4.70;4.30;;;25.00;44.90;;;;;;4996885;28;20207;-88
2021/09/11 11:49:59;;;;;;;5.28;4.88;;;24.70;45.60;;;;;;5015093;28;20210;-87
2021/09/11 12:10:00;;;;;;;12.43;10.60;;;23.80;48.40;;;;;;5015163;28;20192;-86
2021/09/11 12:12:27;;;;;;;4.95;4.53;;;23.60;52.20;;;;;;5017715;28;20268;-86
2021/09/11 12:14:56;;;;;;;4.80;4.20;;;23.50;53.30;;;;;;5014210;28;20210;-90
2021/09/11 12:17:24;;;;;;;5.90;4.78;;;23.70;57.90;;;;;;5009311;28;20231;-90
2021/09/11 12:20:23;;;;;;;4.70;4.30;;;23.70;52.60;;;;;;5001166;28;20545;-90
2021/09/11 12:23:10;;;;;;;5.43;4.93;;;23.80;51.60;;;;;;4979401;28;20227;-90
2021/09/11 12:26:06;;;;;;;5.35;4.85;;;23.60;51.40;;;;;;4994594;28;20808;-87
2021/09/11 12:29:04;;;;;;;8.25;6.68;;;23.70;52.90;;;;;;4995777;28;20643;-87
2021/09/11 12:31:33;;;;;;;5.53;4.32;;;23.50;53.70;;;;;;5016103;28;20280;-86
2021/09/11 12:34:02;;;;;;;4.78;4.25;;;23.10;55.50;;;;;;4995226;28;20222;-89
2021/09/11 12:36:33;;;;;;;3.85;3.55;;;22.60;59.00;;;;;;4988816;28;20267;-89
2021/09/11 12:39:02;;;;;;;3.47;3.17;;;22.10;61.60;;;;;;5016936;28;20241;-88
2021/09/11 12:41:31;;;;;;;5.07;3.53;;;21.70;65.90;;;;;;5009541;28;20231;-86
2021/09/11 12:43:58;;;;;;;4.15;3.85;;;21.40;72.00;;;;;;5011144;28;20207;-85
2021/09/11 12:56:34;;;;;;;7.18;6.03;;;19.90;94.10;;;;;;5022550;28;20264;-89
2021/09/11 12:59:01;;;;;;;6.28;5.70;;;19.80;94.60;;;;;;5021224;28;20234;-88
2021/09/11 13:01:33;;;;;;;7.00;6.20;;;19.70;95.50;;;;;;5021577;28;20286;-89
2021/09/11 13:04:03;;;;;;;6.45;5.85;;;19.90;96.30;;;;;;5024494;28;20187;-89
2021/09/11 13:07:04;;;;;;;6.55;5.90;;;20.00;96.20;;;;;;5018919;28;20283;-91
2021/09/11 13:09:32;;;;;;;6.18;5.57;;;20.30;95.90;;;;;;5019449;28;20564;-88
2021/09/11 13:12:00;;;;;;;6.20;5.65;;;20.50;94.90;;;;;;5018522;28;20203;-88
2021/09/11 13:15:13;;;;;;;5.57;5.03;;;20.70;94.70;;;;;;5017353;28;20209;-86
2021/09/11 13:17:40;;;;;;;4.88;4.47;;;21.20;93.70;;;;;;5019144;28;20250;-88
2021/09/11 13:20:25;;;;;;;4.55;4.10;;;21.80;90.20;;;;;;5018690;28;20195;-87
2021/09/11 13:22:52;;;;;;;4.30;3.90;;;22.30;83.10;;;;;;5025725;28;20230;-87
2021/09/11 13:25:19;;;;;;;4.45;4.05;;;22.70;81.90;;;;;;5014482;28;20196;-85
2021/09/11 13:27:48;;;;;;;55.40;50.05;;;22.90;75.50;;;;;;5008047;28;20196;-89
2021/09/11 13:30:22;;;;;;;9.13;8.30;;;23.30;73.50;;;;;;5005846;28;20200;-88
2021/09/11 13:32:49;;;;;;;6.05;3.75;;;23.40;74.10;;;;;;5015407;28;20241;-88
2021/09/11 13:35:16;;;;;;;5.20;4.55;;;23.60;64.70;;;;;;5018006;28;20577;-87
2021/09/11 13:37:44;;;;;;;4.53;3.80;;;23.40;62.70;;;;;;5015883;28;20237;-85
2021/09/11 13:40:13;;;;;;;4.43;3.55;;;23.40;62.40;;;;;;5007624;28;20200;-86
2021/09/11 13:42:41;;;;;;;3.35;3.10;;;23.50;65.30;;;;;;5015621;28;20219;-87
2021/09/11 13:45:11;;;;;;;3.90;3.60;;;23.50;65.50;;;;;;5017047;28;20275;-89
2021/09/11 13:47:38;;;;;;;4.03;3.63;;;23.40;65.00;;;;;;5009691;28;20318;-87
2021/09/11 13:50:05;;;;;;;4.07;3.70;;;23.60;65.10;;;;;;5018208;28;20295;-92
2021/09/11 13:52:32;;;;;;;4.18;3.85;;;23.60;59.20;;;;;;5006338;28;20730;-87
2021/09/11 13:55:39;;;;;;;4.50;3.67;;;23.40;59.00;;;;;;5006078;28;20229;-88
2021/09/11 13:58:05;;;;;;;4.90;4.20;;;23.20;58.80;;;;;;4998872;28;20259;-88
2021/09/11 14:00:42;;;;;;;4.10;3.50;;;23.20;62.30;;;;;;4997926;28;20727;-88
2021/09/11 14:03:50;;;;;;;3.65;3.35;;;23.10;63.50;;;;;;4994230;28;20208;-87
2021/09/11 14:16:33;;;;;;;4.22;3.83;;;22.90;69.30;;;;;;5022022;28;20187;-86
2021/09/11 14:22:51;;;;;;;4.53;4.10;;;23.00;68.70;;;;;;5039613;28;20613;-84
2021/09/11 14:29:28;;;;;;;4.22;3.83;;;22.90;70.40;;;;;;5042195;28;20183;-84
2021/09/11 14:31:57;;;;;;;5.55;4.35;;;22.60;75.80;;;;;;5044158;28;20199;-86
2021/09/11 14:47:22;;;;;;;4.68;4.18;;;22.20;75.50;;;;;;4960138;22;20238;-85
2021/09/11 14:49:49;;;;;;;4.70;4.30;;;22.20;75.70;;;;;;4936580;29;20190;-85
2021/09/11 14:59:59;;;;;;;4.75;3.85;;;22.80;64.30;;;;;;4939560;28;20228;-84
2021/09/11 15:02:49;;;;;;;4.38;3.97;;;22.90;58.90;;;;;;4925364;28;20237;-85
2021/09/11 15:05:17;;;;;;;4.13;3.72;;;22.90;61.30;;;;;;4921328;29;20222;-85
2021/09/11 15:07:43;;;;;;;5.10;4.32;;;22.80;65.10;;;;;;4934960;28;20234;-83
2021/09/11 15:10:11;;;;;;;4.82;4.43;;;22.80;63.30;;;;;;4935822;28;20210;-86
2021/09/11 15:12:39;;;;;;;4.47;4.07;;;22.70;62.60;;;;;;4935484;28;20723;-86
2021/09/11 15:15:07;;;;;;;4.40;4.03;;;22.30;66.50;;;;;;4936670;28;20213;-86
2021/09/11 15:31:42;;;;;;;4.45;4.00;;;21.70;75.20;;;;;;4942431;28;20183;-85
2021/09/11 15:34:10;;;;;;;6.13;4.70;;;21.60;75.90;;;;;;5825650;23;20237;-85
2021/09/11 15:36:37;;;;;;;5.53;4.40;;;21.60;77.40;;;;;;4997563;28;20247;-89
2021/09/11 15:42:26;;;;;;;4.65;3.80;;;21.50;76.70;;;;;;5003921;28;20199;-90
2021/09/11 15:44:55;;;;;;;4.55;4.25;;;21.50;78.10;;;;;;4997407;28;20204;-86
2021/09/11 15:47:23;;;;;;;3.85;3.55;;;21.60;77.40;;;;;;5001057;28;20236;-87
2021/09/11 15:49:51;;;;;;;4.32;3.92;;;21.50;76.40;;;;;;5004709;28;20204;-90
2021/09/11 15:52:21;;;;;;;4.38;3.97;;;21.60;75.70;;;;;;4996819;28;20238;-87
2021/09/11 15:54:56;;;;;;;6.10;4.07;;;21.40;76.60;;;;;;4998931;28;20192;-84
2021/09/11 15:57:23;;;;;;;4.07;3.70;;;21.40;75.90;;;;;;4996950;28;20234;-83
2021/09/11 15:59:50;;;;;;;4.05;3.70;;;21.50;76.20;;;;;;4996180;28;20247;-84
2021/09/11 16:02:24;;;;;;;4.07;3.78;;;21.50;76.00;;;;;;4986562;28;20575;-90
2021/09/11 16:04:51;;;;;;;4.55;3.60;;;21.40;76.20;;;;;;4995455;28;20203;-84
2021/09/11 16:07:18;;;;;;;4.82;4.18;;;21.40;76.50;;;;;;4995420;28;20228;-85
2021/09/11 16:09:45;;;;;;;5.57;3.60;;;21.40;79.30;;;;;;4997652;28;20522;-82
2021/09/11 16:12:33;;;;;;;4.47;3.55;;;21.40;76.40;;;;;;4999648;28;20259;-86
2021/09/11 16:15:40;;;;;;;3.80;3.30;;;21.40;77.70;;;;;;5001768;28;20220;-84
2021/09/11 16:18:08;;;;;;;3.75;3.30;;;21.30;73.80;;;;;;4999784;28;20214;-88
2021/09/11 16:20:36;;;;;;;3.50;3.15;;;21.20;75.80;;;;;;4996350;28;20192;-86
2021/09/11 16:23:03;;;;;;;3.15;2.85;;;21.20;77.50;;;;;;4993951;28;20223;-87
2021/09/11 16:25:30;;;;;;;3.53;3.22;;;21.10;77.70;;;;;;5002343;28;20206;-85
2021/09/11 16:28:29;;;;;;;3.63;3.30;;;21.10;76.00;;;;;;5002942;28;20258;-82
2021/09/11 16:30:56;;;;;;;4.22;3.60;;;21.10;76.00;;;;;;5004776;28;20215;-83
2021/09/11 16:33:27;;;;;;;3.33;3.10;;;21.00;76.10;;;;;;5048088;23;20296;-85
2021/09/11 16:35:54;;;;;;;3.40;3.10;;;21.00;76.10;;;;;;5085234;28;20204;-85
2021/09/11 16:38:43;;;;;;;2.95;2.75;;;20.90;75.80;;;;;;5092205;28;20312;-85
2021/09/11 16:41:12;;;;;;;3.85;3.08;;;20.80;76.50;;;;;;5074082;28;20277;-85
2021/09/11 16:43:39;;;;;;;3.45;2.80;;;20.70;79.10;;;;;;5086978;28;20216;-85
2021/09/11 16:46:07;;;;;;;4.18;3.13;;;20.60;81.20;;;;;;5073110;28;20222;-87
2021/09/11 16:48:36;;;;;;;3.10;2.90;;;20.50;83.10;;;;;;5068955;28;20218;-86
2021/09/11 16:51:03;;;;;;;3.50;3.20;;;20.30;85.80;;;;;;5094830;28;20243;-86
2021/09/11 16:54:25;;;;;;;3.25;2.92;;;20.20;88.30;;;;;;5087180;28;20241;-86
2021/09/11 16:56:52;;;;;;;3.28;2.95;;;20.10;89.60;;;;;;5085185;28;20315;-86
2021/09/11 16:59:19;;;;;;;3.50;3.17;;;20.00;90.70;;;;;;5068292;28;20256;-86
2021/09/11 17:01:46;;;;;;;3.05;2.85;;;19.90;90.90;;;;;;5086050;28;20220;-87
2021/09/11 17:04:14;;;;;;;3.40;3.00;;;19.70;91.00;;;;;;5093655;28;20220;-86
2021/09/11 17:06:42;;;;;;;3.80;2.97;;;19.70;91.60;;;;;;5080060;28;20308;-90
2021/09/11 17:09:09;;;;;;;4.22;3.13;;;19.50;91.80;;;;;;5084211;28;20193;-86
2021/09/11 17:11:37;;;;;;;3.42;3.15;;;19.40;92.50;;;;;;5080904;28;20229;-86
2021/09/11 17:14:05;;;;;;;2.90;2.70;;;19.30;92.50;;;;;;5086850;28;20268;-86
2021/09/11 17:16:36;;;;;;;3.80;3.50;;;19.40;92.50;;;;;;5107054;28;20227;-86
2021/09/11 17:19:04;;;;;;;3.47;3.17;;;19.40;92.50;;;;;;5084260;28;20247;-86
2021/09/11 17:25:36;;;;;;;3.65;3.35;;;19.40;92.50;;;;;;5085023;28;20160;-89
2021/09/11 17:28:05;;;;;;;3.30;3.00;;;19.40;92.50;;;;;;5079312;28;20223;-88
2021/09/11 17:30:34;;;;;;;3.40;3.10;;;19.20;92.40;;;;;;5060139;28;20185;-89
2021/09/11 17:51:10;;;;;;;4.22;3.30;;;18.90;94.50;;;;;;5096790;23;20243;-87
2021/09/11 17:53:38;;;;;;;3.80;3.50;;;18.80;94.40;;;;;;5077179;28;20285;-85
2021/09/11 17:56:05;;;;;;;5.13;4.63;;;18.80;94.50;;;;;;5071607;28;20204;-84
2021/09/11 17:58:34;;;;;;;5.50;5.00;;;18.70;94.70;;;;;;5072278;28;20774;-88
2021/09/11 18:01:02;;;;;;;5.30;4.80;;;18.60;94.90;;;;;;5079036;28;20202;-84
2021/09/11 18:03:28;;;;;;;4.97;4.45;;;18.60;95.30;;;;;;5076786;28;20294;-84
2021/09/11 18:05:55;;;;;;;5.68;5.18;;;18.50;95.50;;;;;;5073391;28;20203;-85
2021/09/11 18:08:24;;;;;;;5.68;5.00;;;18.50;95.80;;;;;;5079861;28;20199;-84
2021/09/11 18:10:51;;;;;;;5.57;5.07;;;18.50;96.00;;;;;;5069353;28;20201;-84
2021/09/11 18:13:18;;;;;;;5.30;4.72;;;18.50;96.10;;;;;;5068132;28;20193;-84
2021/09/11 18:15:45;;;;;;;6.03;5.00;;;18.50;96.20;;;;;;5071947;28;20202;-87
2021/09/11 18:18:12;;;;;;;5.03;4.53;;;18.50;96.30;;;;;;5071015;28;20284;-85
2021/09/11 18:20:40;;;;;;;4.90;4.40;;;18.40;96.30;;;;;;5073745;28;20212;-85
2021/09/11 18:23:07;;;;;;;5.30;4.80;;;18.60;96.80;;;;;;5067570;28;20572;-85
2021/09/11 18:25:35;;;;;;;4.97;4.57;;;18.60;96.60;;;;;;5075692;28;20331;-85
2021/09/11 18:28:02;;;;;;;6.07;5.05;;;18.50;96.70;;;;;;5079620;28;20213;-84
2021/09/11 18:30:30;;;;;;;5.20;4.70;;;18.40;96.60;;;;;;5083744;28;20201;-84
2021/09/11 18:32:56;;;;;;;6.03;5.43;;;18.30;97.00;;;;;;5064231;28;20306;-84
2021/09/11 18:35:25;;;;;;;5.60;5.10;;;18.30;97.50;;;;;;5051850;28;20202;-84
2021/09/11 18:37:52;;;;;;;6.68;4.97;;;18.20;97.70;;;;;;5052636;28;20950;-84
2021/09/11 18:40:19;;;;;;;7.15;5.97;;;18.10;97.60;;;;;;5059698;28;20245;-85
2021/09/11 18:42:47;;;;;;;6.05;5.43;;;18.10;98.20;;;;;;5049876;28;20685;-84
2021/09/11 18:45:14;;;;;;;5.88;5.38;;;17.90;98.30;;;;;;5046589;28;20660;-84
2021/09/11 18:47:44;;;;;;;7.15;6.45;;;17.80;98.50;;;;;;5061227;28;20230;-84
2021/09/11 18:50:12;;;;;;;6.63;5.93;;;17.80;98.70;;;;;;5042645;28;20198;-84
2021/09/11 18:52:41;;;;;;;8.23;6.13;;;17.80;98.70;;;;;;5052052;28;20221;-84
2021/09/11 18:55:09;;;;;;;6.20;5.60;;;17.80;98.80;;;;;;5033106;28;20209;-84
2021/09/11 18:57:36;;;;;;;7.68;5.65;;;17.70;98.90;;;;;;5058098;28;20218;-84
2021/09/11 19:00:06;;;;;;;8.50;5.85;;;17.70;99.20;;;;;;5063585;28;20222;-84
2021/09/11 19:02:33;;;;;;;6.20;5.60;;;17.60;99.20;;;;;;5061797;28;20308;-85
2021/09/11 19:05:00;;;;;;;7.88;7.07;;;17.50;99.50;;;;;;5036972;28;20213;-84
2021/09/11 19:07:27;;;;;;;8.98;6.15;;;17.60;99.40;;;;;;5055282;28;20304;-84
2021/09/11 19:09:53;;;;;;;6.00;5.45;;;17.50;99.60;;;;;;5048869;28;20297;-85
2021/09/11 19:12:22;;;;;;;7.15;5.18;;;17.50;99.40;;;;;;5053798;28;20327;-84
2021/09/11 19:14:49;;;;;;;6.78;6.10;;;17.40;99.60;;;;;;5055866;28;20202;-85
2021/09/11 19:17:18;;;;;;;7.43;6.43;;;17.30;99.90;;;;;;5047301;28;20222;-84
2021/09/11 19:19:46;;;;;;;7.38;6.55;;;17.20;99.90;;;;;;5050793;28;20231;-88
2021/09/11 19:22:13;;;;;;;6.20;5.55;;;17.20;99.90;;;;;;5046859;28;20306;-84
2021/09/11 19:24:40;;;;;;;7.47;6.20;;;17.10;99.90;;;;;;5050395;28;20224;-90
2021/09/11 19:27:07;;;;;;;8.27;6.40;;;17.10;99.90;;;;;;5031339;28;20222;-89
2021/09/11 19:29:34;;;;;;;7.47;6.78;;;17.00;99.90;;;;;;5046042;28;20226;-89
2021/09/11 19:32:02;;;;;;;8.68;6.47;;;16.90;99.90;;;;;;5048633;28;20677;-88
2021/09/11 19:34:31;;;;;;;10.38;6.80;;;16.90;99.90;;;;;;5038232;28;20199;-89
2021/09/11 19:36:59;;;;;;;7.90;6.50;;;16.90;99.90;;;;;;5028737;28;20283;-89
2021/09/11 19:39:28;;;;;;;7.75;6.95;;;16.90;99.90;;;;;;5028159;28;20679;-89
2021/09/11 19:41:59;;;;;;;9.02;6.90;;;16.80;99.90;;;;;;5031493;28;20257;-89
2021/09/11 19:44:26;;;;;;;7.95;6.85;;;16.80;99.90;;;;;;5024007;28;20198;-89
2021/09/11 19:46:53;;;;;;;6.85;6.25;;;16.90;99.90;;;;;;5044988;28;20260;-89
2021/09/11 19:49:27;;;;;;;7.68;6.97;;;17.00;99.90;;;;;;5037276;28;20226;-90
2021/09/11 19:51:56;;;;;;;8.20;7.30;;;17.00;99.90;;;;;;5050536;28;20282;-89
2021/09/11 19:54:27;;;;;;;9.02;7.13;;;17.00;99.90;;;;;;5036152;28;20288;-90
2021/09/11 19:56:56;;;;;;;13.23;7.40;;;17.00;99.90;;;;;;5025815;28;20218;-92
2021/09/11 19:59:25;;;;;;;8.05;7.18;;;17.00;99.90;;;;;;5031805;28;20210;-90
2021/09/11 20:01:52;;;;;;;8.43;7.13;;;16.90;99.90;;;;;;5032317;28;20689;-90
2021/09/11 20:04:22;;;;;;;10.73;7.63;;;16.90;99.90;;;;;;5051543;28;20281;-90
2021/09/11 20:06:49;;;;;;;8.82;7.85;;;16.90;99.90;;;;;;5015328;28;20273;-89
2021/09/11 20:11:58;;;;;;;9.98;7.88;;;16.90;99.90;;;;;;5040392;28;20269;-91
2021/09/11 20:14:25;;;;;;;11.02;8.00;;;16.90;99.90;;;;;;5026845;28;20300;-91
2021/09/11 20:16:54;;;;;;;11.55;8.98;;;16.80;99.90;;;;;;5028718;28;20236;-90
2021/09/11 20:19:21;;;;;;;10.48;9.25;;;16.80;99.90;;;;;;5049226;28;20526;-91
2021/09/11 20:21:48;;;;;;;11.55;10.23;;;16.70;99.90;;;;;;5027514;28;20229;-91
2021/09/11 20:24:19;;;;;;;14.15;11.25;;;16.60;99.90;;;;;;5046055;28;20569;-91
2021/09/11 20:26:53;;;;;;;14.15;11.63;;;16.60;99.90;;;;;;5041907;28;20688;-89
2021/09/11 20:29:20;;;;;;;16.67;11.48;;;16.50;99.90;;;;;;5018204;28;20199;-90
2021/09/11 20:31:47;;;;;;;16.08;12.20;;;16.50;99.90;;;;;;5030001;28;20300;-89
2021/09/11 20:34:16;;;;;;;13.68;11.40;;;16.50;99.90;;;;;;5049332;28;20233;-90
2021/09/11 20:36:45;;;;;;;12.55;11.10;;;16.60;99.90;;;;;;5037794;28;20258;-89
2021/09/11 20:39:13;;;;;;;12.63;10.50;;;16.50;99.90;;;;;;5019920;28;20201;-90
2021/09/11 20:41:42;;;;;;;13.13;10.52;;;16.50;99.90;;;;;;5035148;28;20264;-91
2021/09/11 20:44:09;;;;;;;12.55;10.52;;;16.50;99.90;;;;;;5024029;28;20205;-90
2021/09/11 20:46:37;;;;;;;12.43;10.50;;;16.40;99.90;;;;;;5021872;28;20238;-91
2021/09/11 20:49:04;;;;;;;11.60;10.10;;;16.40;99.90;;;;;;5043565;28;20208;-90
2021/09/11 20:51:31;;;;;;;11.57;10.38;;;16.30;99.90;;;;;;5019365;28;20245;-90
2021/09/11 20:53:59;;;;;;;12.60;10.43;;;16.30;99.90;;;;;;5040539;28;20730;-90
2021/09/11 20:56:29;;;;;;;11.35;9.90;;;16.30;99.90;;;;;;5034386;28;20292;-90
2021/09/11 20:58:58;;;;;;;11.80;10.60;;;16.30;99.90;;;;;;5041273;28;20226;-90
2021/09/11 21:01:26;;;;;;;13.07;10.52;;;16.20;99.90;;;;;;5036350;28;20269;-90
2021/09/11 21:03:53;;;;;;;12.10;10.23;;;16.20;99.90;;;;;;5042970;28;20259;-90
2021/09/11 21:06:20;;;;;;;11.20;10.00;;;16.10;99.90;;;;;;5043534;28;20840;-90
2021/09/11 21:08:48;;;;;;;11.95;10.20;;;16.20;99.90;;;;;;5035627;28;20697;-90
2021/09/11 21:11:15;;;;;;;11.23;9.50;;;16.20;99.90;;;;;;5050572;28;20592;-90
2021/09/11 21:13:42;;;;;;;10.70;9.60;;;16.20;99.90;;;;;;5052223;28;20294;-90
2021/09/11 21:16:10;;;;;;;10.75;9.52;;;16.20;99.90;;;;;;5041867;28;20685;-89
2021/09/11 21:18:38;;;;;;;9.70;8.70;;;16.20;99.90;;;;;;5053826;28;20289;-90
2021/09/11 21:21:05;;;;;;;10.43;9.07;;;16.10;99.90;;;;;;5055168;28;20229;-90
2021/09/11 21:23:34;;;;;;;11.18;8.95;;;16.20;99.90;;;;;;5031202;28;20206;-90
2021/09/11 21:26:02;;;;;;;10.68;9.30;;;16.00;99.90;;;;;;5022561;28;20561;-90
2021/09/11 21:28:29;;;;;;;9.88;8.88;;;15.90;99.90;;;;;;5053250;28;20201;-90
2021/09/11 21:30:56;;;;;;;9.23;8.32;;;15.90;99.90;;;;;;5038530;28;20685;-90
2021/09/11 21:33:28;;;;;;;8.82;7.93;;;15.90;99.90;;;;;;5035931;28;20680;-90
2021/09/11 21:35:55;;;;;;;10.27;8.68;;;16.00;99.90;;;;;;5049317;28;20285;-90
2021/09/11 21:38:22;;;;;;;10.82;8.40;;;15.90;99.90;;;;;;5046963;28;20213;-90
2021/09/11 21:40:50;;;;;;;9.43;8.35;;;15.90;99.90;;;;;;5035607;28;20223;-90
2021/09/11 21:43:17;;;;;;;11.15;8.48;;;15.80;99.90;;;;;;5044355;28;20194;-90
2021/09/11 21:45:44;;;;;;;8.85;7.93;;;15.80;99.90;;;;;;5035019;28;20198;-90
2021/09/11 21:48:11;;;;;;;9.50;8.50;;;15.80;99.90;;;;;;5044352;28;20298;-90
2021/09/11 21:50:40;;;;;;;9.63;8.35;;;15.90;99.90;;;;;;5039850;28;20209;-90
2021/09/11 21:53:07;;;;;;;9.50;8.18;;;15.80;99.90;;;;;;5047299;28;20308;-90
2021/09/11 21:55:40;;;;;;;11.57;9.68;;;15.80;99.90;;;;;;5042373;28;20701;-90
2021/09/11 21:58:08;;;;;;;11.77;9.75;;;15.70;99.90;;;;;;5047260;28;20289;-89
2021/09/11 22:00:49;;;;;;;8.98;8.07;;;15.80;99.90;;;;;;5054991;28;20226;-90
2021/09/11 22:03:18;;;;;;;8.43;7.65;;;15.80;99.90;;;;;;5038144;28;20213;-90
2021/09/11 22:05:50;;;;;;;9.38;8.45;;;15.80;99.90;;;;;;5044718;28;20202;-90
2021/09/11 22:08:22;;;;;;;9.57;8.57;;;15.70;99.90;;;;;;5052997;28;20207;-91
2021/09/11 22:13:30;;;;;;;11.15;8.55;;;15.60;99.90;;;;;;5029097;28;20217;-90
2021/09/11 22:15:57;;;;;;;9.95;8.77;;;15.60;99.90;;;;;;5022210;28;20213;-90
2021/09/11 22:18:25;;;;;;;10.80;8.38;;;15.50;99.90;;;;;;5058371;28;20226;-90